createdAt,value
2019-01-12T00:01:53.155Z,94.00
2019-01-12T00:04:29.341Z,93.70
2019-01-12T00:07:04.197Z,93.50
2019-01-12T00:09:40.449Z,93.50
2019-01-12T00:12:15.290Z,93.70
2019-01-12T00:14:50.422Z,93.70
2019-01-12T00:17:26.225Z,93.70
2019-01-12T00:20:01.156Z,93.30
2019-01-12T00:22:38.167Z,93.30
2019-01-12T00:25:12.990Z,93.10
2019-01-12T00:27:48.107Z,93.10
2019-01-12T00:30:22.945Z,92.60
2019-01-12T00:32:58.066Z,92.70
2019-01-12T00:35:32.932Z,92.50
2019-01-12T00:38:08.694Z,93.00
2019-01-12T00:40:43.841Z,92.70
2019-01-12T00:43:18.743Z,92.60
2019-01-12T00:45:53.928Z,92.40
2019-01-12T00:48:29.044Z,92.50
2019-01-12T00:51:04.150Z,92.40
2019-01-12T00:53:39.231Z,92.40
2019-01-12T00:56:15.077Z,92.60
2019-01-12T00:58:50.845Z,92.50
2019-01-12T01:01:25.935Z,92.30
2019-01-12T01:04:00.785Z,92.50
2019-01-12T01:06:35.641Z,92.60
2019-01-12T01:09:10.821Z,92.20
2019-01-12T01:11:46.210Z,92.30
2019-01-12T01:14:21.092Z,92.30
2019-01-12T01:16:55.961Z,92.70
2019-01-12T01:19:30.901Z,92.50
2019-01-12T01:22:06.009Z,92.50
2019-01-12T01:24:45.725Z,92.40
2019-01-12T01:27:18.321Z,92.40
2019-01-12T01:29:53.171Z,92.20
2019-01-12T01:32:28.333Z,92.70
2019-01-12T01:35:03.190Z,92.60
2019-01-12T01:37:38.331Z,92.40
2019-01-12T01:40:16.267Z,92.40
2019-01-12T01:42:51.154Z,92.30
2019-01-12T01:45:25.996Z,92.20
2019-01-12T01:48:00.857Z,92.30
2019-01-12T01:50:35.991Z,92.30
2019-01-12T01:53:10.835Z,92.20
2019-01-12T01:55:46.946Z,92.00
2019-01-12T01:58:21.856Z,92.00
2019-01-12T02:00:56.976Z,92.10
2019-01-12T02:03:33.051Z,92.00
2019-01-12T02:06:07.892Z,92.00
2019-01-12T02:08:42.727Z,92.00
2019-01-12T02:11:17.841Z,92.00
2019-01-12T02:13:52.674Z,91.90
2019-01-12T02:16:27.807Z,91.80
2019-01-12T02:19:02.952Z,92.00
2019-01-12T02:21:38.674Z,92.00
2019-01-12T02:24:13.948Z,92.10
2019-01-12T02:26:49.744Z,92.30
2019-01-12T02:29:24.595Z,92.40
2019-01-12T02:32:00.469Z,92.60
2019-01-12T02:34:35.305Z,92.70
2019-01-12T02:37:11.335Z,92.50
2019-01-12T02:39:46.331Z,92.50
2019-01-12T02:42:21.194Z,92.90
2019-01-12T02:44:56.119Z,92.10
2019-01-12T02:47:31.226Z,92.00
2019-01-12T02:50:08.877Z,91.60
2019-01-12T02:52:43.815Z,91.50
2019-01-12T02:55:18.827Z,91.60
2019-01-12T02:57:54.656Z,91.70
2019-01-12T03:00:29.516Z,91.60
2019-01-12T03:03:08.740Z,91.60
2019-01-12T03:05:44.716Z,91.90
2019-01-12T03:08:19.562Z,92.00
2019-01-12T03:10:54.417Z,92.10
2019-01-12T03:13:29.527Z,92.10
2019-01-12T03:16:04.367Z,92.40
2019-01-12T03:18:39.222Z,92.40
2019-01-12T03:21:14.161Z,92.40
2019-01-12T03:23:49.074Z,92.60
2019-01-12T03:26:23.931Z,92.70
2019-01-12T03:28:58.794Z,92.60
2019-01-12T03:31:34.588Z,92.60
2019-01-12T03:34:11.730Z,92.60
2019-01-12T03:36:46.654Z,92.60
2019-01-12T03:39:21.508Z,92.50
2019-01-12T03:41:56.364Z,92.30
2019-01-12T03:44:31.201Z,92.40
2019-01-12T03:47:06.341Z,92.30
2019-01-12T03:49:41.251Z,92.30
2019-01-12T03:52:16.112Z,92.20
2019-01-12T03:54:50.946Z,92.20
2019-01-12T03:57:25.810Z,92.50
2019-01-12T04:00:01.407Z,92.40
2019-01-12T04:02:36.333Z,92.60
2019-01-12T04:05:11.471Z,92.60
2019-01-12T04:07:46.617Z,92.70
2019-01-12T04:10:21.486Z,92.80
2019-01-12T04:12:56.689Z,92.90
2019-01-12T04:15:31.610Z,93.00
2019-01-12T04:18:06.431Z,93.00
2019-01-12T04:20:41.275Z,93.10
2019-01-12T04:23:16.412Z,93.20
2019-01-12T04:25:53.914Z,93.30
2019-01-12T04:28:28.752Z,93.40
2019-01-12T04:31:04.240Z,93.40
2019-01-12T04:33:39.421Z,93.40
2019-01-12T04:36:14.259Z,93.50
2019-01-12T04:38:49.494Z,93.50
2019-01-12T04:41:25.954Z,93.40
2019-01-12T04:44:00.782Z,93.40
2019-01-12T04:46:35.641Z,93.40
2019-01-12T04:49:10.475Z,93.40
2019-01-12T04:51:45.351Z,93.30
2019-01-12T04:54:20.205Z,92.90
2019-01-12T04:56:55.455Z,93.00
2019-01-12T04:59:30.601Z,93.00
2019-01-12T05:02:05.446Z,93.10
2019-01-12T05:04:40.450Z,93.00
2019-01-12T05:07:15.305Z,93.10
2019-01-12T05:09:50.163Z,92.70
2019-01-12T05:12:26.259Z,92.80
2019-01-12T05:15:01.131Z,92.70
2019-01-12T05:17:36.456Z,92.70
2019-01-12T05:20:17.590Z,92.70
2019-01-12T05:22:52.868Z,92.80
2019-01-12T05:25:28.833Z,92.40
2019-01-12T05:28:04.179Z,92.30
2019-01-12T05:30:39.428Z,92.00
2019-01-12T05:33:15.690Z,92.00
2019-01-12T05:35:51.603Z,91.90
2019-01-12T05:38:26.538Z,91.90
2019-01-12T05:41:02.113Z,91.60
2019-01-12T05:43:37.076Z,91.90
2019-01-12T05:46:11.918Z,91.70
2019-01-12T05:48:46.864Z,91.50
2019-01-12T05:51:22.070Z,91.40
2019-01-12T05:53:56.898Z,91.30
2019-01-12T05:56:32.026Z,91.40
2019-01-12T05:59:07.806Z,91.00
2019-01-12T06:01:42.686Z,90.70
2019-01-12T06:04:17.537Z,90.70
2019-01-12T06:06:52.777Z,90.40
2019-01-12T06:09:27.638Z,89.70
2019-01-12T06:12:02.849Z,89.30
2019-01-12T06:14:37.959Z,88.90
2019-01-12T06:17:13.149Z,88.20
2019-01-12T06:19:47.993Z,87.90
2019-01-12T06:22:22.829Z,87.80
2019-01-12T06:24:57.671Z,88.20
2019-01-12T06:27:32.502Z,88.00
2019-01-12T06:30:10.660Z,88.40
2019-01-12T06:32:45.791Z,88.80
2019-01-12T06:35:20.651Z,88.70
2019-01-12T06:37:55.566Z,88.10
2019-01-12T06:40:31.434Z,87.90
2019-01-12T06:43:06.280Z,88.00
2019-01-12T06:45:41.489Z,88.10
2019-01-12T06:48:17.043Z,87.90
2019-01-12T06:50:52.386Z,87.60
2019-01-12T06:53:27.609Z,87.30
2019-01-12T06:56:02.470Z,86.80
2019-01-12T06:58:37.428Z,87.00
2019-01-12T07:01:12.311Z,86.40
2019-01-12T07:03:47.551Z,86.30
2019-01-12T07:06:22.382Z,85.90
2019-01-12T07:08:57.238Z,86.00
2019-01-12T07:11:33.099Z,86.20
2019-01-12T07:14:07.938Z,86.10
2019-01-12T07:16:42.794Z,86.60
2019-01-12T07:19:17.944Z,85.40
2019-01-12T07:21:52.823Z,85.20
2019-01-12T07:24:27.727Z,85.10
2019-01-12T07:27:02.863Z,85.70
2019-01-12T07:29:37.725Z,85.10
2019-01-12T07:32:12.942Z,85.50
2019-01-12T07:34:47.797Z,85.70
2019-01-12T07:37:22.712Z,86.00
2019-01-12T07:39:59.066Z,86.00
2019-01-12T07:42:33.912Z,86.70
2019-01-12T07:45:09.909Z,86.00
2019-01-12T07:47:44.761Z,86.20
2019-01-12T07:50:19.902Z,86.10
2019-01-12T07:52:55.433Z,86.50
2019-01-12T07:55:31.875Z,86.80
2019-01-12T07:58:06.727Z,87.80
2019-01-12T08:00:42.005Z,89.20
2019-01-12T08:03:17.935Z,90.10
2019-01-12T08:05:52.893Z,90.60
2019-01-12T08:08:27.732Z,91.40
2019-01-12T08:11:07.398Z,92.00
2019-01-12T08:13:43.347Z,92.30
2019-01-12T08:16:18.309Z,92.60
2019-01-12T08:18:53.276Z,92.70
2019-01-12T08:21:28.278Z,92.90
2019-01-12T08:24:03.178Z,92.90
2019-01-12T08:26:38.418Z,92.80
2019-01-12T08:29:14.581Z,92.70
2019-01-12T08:31:49.453Z,92.60
2019-01-12T08:34:24.650Z,92.40
2019-01-12T08:37:00.051Z,92.30
2019-01-12T08:39:34.922Z,92.20
2019-01-12T08:42:09.788Z,92.10
2019-01-12T08:44:45.552Z,92.10
2019-01-12T08:47:20.742Z,92.30
2019-01-12T08:49:55.594Z,92.70
2019-01-12T08:52:30.462Z,92.90
2019-01-12T08:55:08.685Z,93.20
2019-01-12T08:57:43.557Z,93.40
2019-01-12T09:00:20.888Z,93.40
2019-01-12T09:02:55.821Z,93.30
2019-01-12T09:05:30.913Z,93.30
2019-01-12T09:08:05.937Z,93.40
2019-01-12T09:10:41.274Z,93.40
2019-01-12T09:13:17.142Z,93.60
2019-01-12T09:15:52.084Z,94.00
2019-01-12T09:18:27.976Z,94.40
2019-01-12T09:21:02.802Z,94.90
2019-01-12T09:23:37.914Z,95.40
2019-01-12T09:26:12.943Z,95.90
2019-01-12T09:28:48.059Z,96.30
2019-01-12T09:31:23.169Z,96.50
2019-01-12T09:33:58.041Z,96.70
2019-01-12T09:36:33.903Z,96.90
2019-01-12T09:39:08.755Z,97.00
2019-01-12T09:41:43.850Z,97.10
2019-01-12T09:44:18.739Z,97.30
2019-01-12T09:46:54.055Z,97.50
2019-01-12T09:49:28.940Z,97.70
2019-01-12T09:52:03.873Z,97.80
2019-01-12T09:54:39.670Z,97.80
2019-01-12T09:57:51.123Z,97.80
2019-01-12T10:00:58.630Z,97.90
2019-01-12T10:03:34.536Z,97.80
2019-01-12T10:06:09.550Z,97.70
2019-01-12T10:08:44.841Z,97.70
2019-01-12T10:11:19.891Z,97.70
2019-01-12T10:13:54.922Z,97.70
2019-01-12T10:16:31.702Z,97.50
2019-01-12T10:19:07.892Z,97.40
2019-01-12T10:21:42.825Z,97.30
2019-01-12T10:24:18.202Z,97.10
2019-01-12T10:26:58.533Z,96.90
2019-01-12T10:29:29.703Z,96.70
2019-01-12T10:32:04.703Z,96.50
2019-01-12T10:34:41.193Z,96.50
2019-01-12T10:37:16.658Z,96.30
2019-01-12T10:39:52.027Z,96.10
2019-01-12T10:42:26.911Z,96.00
2019-01-12T10:45:02.141Z,95.80
2019-01-12T10:47:37.743Z,95.80
2019-01-12T10:50:29.185Z,95.80
2019-01-12T10:53:05.913Z,95.90
2019-01-12T10:55:40.895Z,95.60
2019-01-12T10:58:15.827Z,95.20
2019-01-12T11:00:51.075Z,95.00
2019-01-12T11:03:25.932Z,95.00
2019-01-12T11:06:00.870Z,94.90
2019-01-12T11:08:35.745Z,94.90
2019-01-12T11:11:11.123Z,95.10
2019-01-12T11:13:46.063Z,95.10
2019-01-12T11:16:21.450Z,94.90
2019-01-12T11:18:56.504Z,94.70
2019-01-12T11:21:31.355Z,94.20
2019-01-12T11:24:08.866Z,93.90
2019-01-12T11:26:44.091Z,93.80
2019-01-12T11:29:19.349Z,93.80
2019-01-12T11:31:55.170Z,94.20
2019-01-12T11:34:30.317Z,94.20
2019-01-12T11:37:05.604Z,93.80
2019-01-12T11:39:41.442Z,93.60
2019-01-12T11:42:16.352Z,93.70
2019-01-12T11:44:51.513Z,93.70
2019-01-12T11:47:26.476Z,93.80
2019-01-12T11:50:01.686Z,94.00
2019-01-12T11:52:37.138Z,93.90
2019-01-12T11:55:14.542Z,93.80
2019-01-12T11:57:49.770Z,93.50
2019-01-12T12:00:27.472Z,93.90
2019-01-12T12:03:04.038Z,93.70
2019-01-12T12:05:39.006Z,93.70
2019-01-12T12:08:15.481Z,93.60
2019-01-12T12:10:51.766Z,93.80
2019-01-12T12:13:26.646Z,94.10
2019-01-12T12:16:04.838Z,93.70
2019-01-12T12:18:41.093Z,93.50
2019-01-12T12:21:16.296Z,93.20
2019-01-12T12:23:51.531Z,92.80
2019-01-12T12:26:26.830Z,92.50
2019-01-12T12:29:02.691Z,92.40
2019-01-12T12:31:37.931Z,92.00
2019-01-12T12:34:13.277Z,92.20
2019-01-12T12:36:49.533Z,92.30
2019-01-12T12:39:25.168Z,92.00
2019-01-12T12:42:00.116Z,91.90
2019-01-12T12:44:35.043Z,91.40
2019-01-12T12:47:09.942Z,91.20
2019-01-12T12:49:46.442Z,91.00
2019-01-12T12:52:21.318Z,91.20
2019-01-12T12:55:00.803Z,90.80
2019-01-12T12:57:35.756Z,90.70
2019-01-12T13:00:16.918Z,90.90
2019-01-12T13:02:51.823Z,91.30
2019-01-12T13:05:27.079Z,91.20
2019-01-12T13:08:01.998Z,90.80
2019-01-12T13:10:37.191Z,90.40
2019-01-12T13:13:12.393Z,90.30
2019-01-12T13:15:47.731Z,90.10
2019-01-12T13:18:22.954Z,90.30
2019-01-12T13:20:57.880Z,90.40
2019-01-12T13:23:32.767Z,90.80
2019-01-12T13:26:08.740Z,90.50
2019-01-12T13:28:43.970Z,90.90
2019-01-12T13:31:18.881Z,90.60
2019-01-12T13:33:53.765Z,90.40
2019-01-12T13:36:29.204Z,90.30
2019-01-12T13:39:06.738Z,90.30
2019-01-12T13:41:41.868Z,90.30
2019-01-12T13:44:16.731Z,90.20
2019-01-12T13:46:51.891Z,90.40
2019-01-12T13:49:26.804Z,90.30
2019-01-12T13:52:01.653Z,90.70
2019-01-12T13:54:36.810Z,90.50
2019-01-12T13:57:13.542Z,90.60
2019-01-12T13:59:49.139Z,90.90
2019-01-12T14:02:24.061Z,91.10
2019-01-12T14:04:58.951Z,91.70
2019-01-12T14:07:34.047Z,92.00
2019-01-12T14:10:12.373Z,92.00
2019-01-12T14:12:47.308Z,92.20
2019-01-12T14:15:23.667Z,92.30
2019-01-12T14:17:58.591Z,92.50
2019-01-12T14:20:35.777Z,92.80
2019-01-12T14:23:11.225Z,93.20
2019-01-12T14:25:46.174Z,93.60
2019-01-12T14:28:21.023Z,94.30
2019-01-12T14:30:55.911Z,94.40
2019-01-12T14:33:31.157Z,94.70
2019-01-12T14:36:06.501Z,95.00
2019-01-12T14:38:42.260Z,95.50
2019-01-12T14:41:17.502Z,95.60
2019-01-12T14:43:53.542Z,95.80
2019-01-12T14:46:29.274Z,96.00
2019-01-12T14:49:04.453Z,96.10
2019-01-12T14:51:39.290Z,96.20
2019-01-12T14:54:14.154Z,96.20
2019-01-12T14:56:50.039Z,96.40
2019-01-12T14:59:25.165Z,96.50
2019-01-12T15:02:00.542Z,96.90
2019-01-12T15:04:35.525Z,97.10
2019-01-12T15:07:10.729Z,97.20
2019-01-12T15:09:45.586Z,97.40
2019-01-12T15:12:20.448Z,97.50
2019-01-12T15:14:55.561Z,97.60
2019-01-12T15:17:30.688Z,97.60
2019-01-12T15:20:12.248Z,97.70
2019-01-12T15:22:48.031Z,97.90
2019-01-12T15:25:22.900Z,97.80
2019-01-12T15:27:57.746Z,97.90
2019-01-12T15:30:32.742Z,98.00
2019-01-12T15:33:07.806Z,98.10
2019-01-12T15:35:42.720Z,98.20
2019-01-12T15:38:21.772Z,98.30
2019-01-12T15:41:02.493Z,98.30
2019-01-12T15:43:39.545Z,98.50
2019-01-12T15:46:14.415Z,98.30
2019-01-12T15:48:49.721Z,98.40
2019-01-12T15:51:24.591Z,98.40
2019-01-12T15:53:59.790Z,98.50
2019-01-12T15:56:34.909Z,98.50
2019-01-12T15:59:09.781Z,98.60
2019-01-12T16:01:44.645Z,98.50
2019-01-12T16:04:19.750Z,98.60
2019-01-12T16:06:55.042Z,99.00
2019-01-12T16:09:30.232Z,98.70
2019-01-12T16:12:05.073Z,98.70
2019-01-12T16:14:39.936Z,98.80
2019-01-12T16:17:14.854Z,98.90
2019-01-12T16:19:50.144Z,98.90
2019-01-12T16:22:25.055Z,99.10
2019-01-12T16:25:00.316Z,99.00
2019-01-12T16:27:35.680Z,99.00
2019-01-12T16:30:17.369Z,99.10
2019-01-12T16:32:52.566Z,98.90
2019-01-12T16:35:27.459Z,99.10
2019-01-12T16:38:02.921Z,98.90
2019-01-12T16:40:37.867Z,98.90
2019-01-12T16:43:12.803Z,99.00
2019-01-12T16:45:49.138Z,98.90
2019-01-12T16:48:25.405Z,98.90
2019-01-12T16:51:00.621Z,98.80
2019-01-12T16:53:35.590Z,98.90
2019-01-12T16:56:10.787Z,98.70
2019-01-12T16:58:46.633Z,98.70
2019-01-12T17:01:21.790Z,98.70
2019-01-12T17:03:57.981Z,98.70
2019-01-12T17:06:33.170Z,98.80
2019-01-12T17:09:08.753Z,99.30
2019-01-12T17:11:43.997Z,98.90
2019-01-12T17:14:18.843Z,99.00
2019-01-12T17:16:53.682Z,99.20
2019-01-12T17:19:28.886Z,99.20
2019-01-12T17:22:03.861Z,99.20
2019-01-12T17:24:39.141Z,99.20
2019-01-12T17:27:13.961Z,99.30
2019-01-12T17:29:48.821Z,99.40
2019-01-12T17:32:24.904Z,99.50
2019-01-12T17:35:00.198Z,99.50
2019-01-12T17:37:36.192Z,99.60
2019-01-12T17:40:15.720Z,99.60
2019-01-12T17:42:51.359Z,99.70
2019-01-12T17:45:26.901Z,99.80
2019-01-12T17:48:01.773Z,99.80
2019-01-12T17:50:37.688Z,99.90
2019-01-12T17:53:13.103Z,99.90
2019-01-12T17:55:48.118Z,99.90
2019-01-12T17:58:23.250Z,99.90
2019-01-12T18:00:58.383Z,99.90
2019-01-12T18:03:33.479Z,99.90
2019-01-12T18:06:08.758Z,99.90
2019-01-12T18:08:43.961Z,99.90
2019-01-12T18:11:18.889Z,99.90
2019-01-12T18:13:53.763Z,99.90
2019-01-12T18:16:28.682Z,99.90
2019-01-12T18:19:03.514Z,99.90
2019-01-12T18:21:38.396Z,99.90
2019-01-12T18:24:14.171Z,99.90
2019-01-12T18:26:50.230Z,99.90
2019-01-12T18:29:29.431Z,99.90
2019-01-12T18:32:05.519Z,99.80
2019-01-12T18:34:40.638Z,99.80
2019-01-12T18:37:15.554Z,99.90
2019-01-12T18:39:50.649Z,99.70
2019-01-12T18:42:25.862Z,99.70
2019-01-12T18:45:00.861Z,99.70
2019-01-12T18:47:36.172Z,99.70
2019-01-12T18:50:14.149Z,99.70
2019-01-12T18:52:49.399Z,99.70
2019-01-12T18:55:25.974Z,99.70
2019-01-12T18:58:01.162Z,99.70
2019-01-12T19:00:36.035Z,99.80
2019-01-12T19:03:12.647Z,99.80
2019-01-12T19:05:47.540Z,99.70
2019-01-12T19:08:22.357Z,99.70
2019-01-12T19:10:59.442Z,99.60
2019-01-12T19:13:34.317Z,99.50
2019-01-12T19:16:09.531Z,99.50
2019-01-12T19:18:44.370Z,99.50
2019-01-12T19:21:19.592Z,99.50
2019-01-12T19:23:54.998Z,99.40
2019-01-12T19:26:30.264Z,99.40
2019-01-12T19:29:06.646Z,99.60
2019-01-12T19:31:43.014Z,99.50
2019-01-12T19:34:18.232Z,99.50
2019-01-12T19:36:53.428Z,99.50
2019-01-12T19:39:28.743Z,99.50
2019-01-12T19:42:05.638Z,99.50
2019-01-12T19:44:40.957Z,99.50
2019-01-12T19:47:16.178Z,99.50
2019-01-12T19:49:51.028Z,99.50
2019-01-12T19:52:26.145Z,99.40
2019-01-12T19:55:01.076Z,99.50
2019-01-12T19:57:36.340Z,99.00
2019-01-12T20:00:16.719Z,99.20
2019-01-12T20:02:51.824Z,99.10
2019-01-12T20:05:27.081Z,98.90
2019-01-12T20:08:04.061Z,98.60
2019-01-12T20:10:39.207Z,98.60
2019-01-12T20:13:14.069Z,98.60
2019-01-12T20:15:49.020Z,98.50
2019-01-12T20:18:24.782Z,98.60
2019-01-12T20:21:00.366Z,98.70
2019-01-12T20:23:35.712Z,98.70
2019-01-12T20:26:10.632Z,98.70
2019-01-12T20:28:45.618Z,99.00
2019-01-12T20:31:27.783Z,98.40
2019-01-12T20:34:06.951Z,98.50
2019-01-12T20:36:57.398Z,98.50
2019-01-12T20:39:58.296Z,98.40
2019-01-12T20:42:55.061Z,98.40
2019-01-12T20:45:56.546Z,98.50
2019-01-12T20:48:50.523Z,98.60
2019-01-12T20:52:04.254Z,98.40
2019-01-12T20:54:58.653Z,98.30
2019-01-12T20:57:36.878Z,98.30
2019-01-12T21:00:41.033Z,98.40
2019-01-12T21:03:42.049Z,98.40
2019-01-12T21:06:39.845Z,98.40
2019-01-12T21:09:22.738Z,98.60
2019-01-12T21:12:28.172Z,98.20
2019-01-12T21:15:07.294Z,98.20
2019-01-12T21:17:43.218Z,98.20
2019-01-12T21:20:18.091Z,98.20
2019-01-12T21:22:53.722Z,98.20
2019-01-12T21:25:28.855Z,98.20
2019-01-12T21:28:03.794Z,98.30
2019-01-12T21:30:39.080Z,98.20
2019-01-12T21:33:13.965Z,98.30
2019-01-12T21:35:49.214Z,98.20
2019-01-12T21:38:25.094Z,98.20
2019-01-12T21:41:02.248Z,98.20
2019-01-12T21:43:37.176Z,98.20
2019-01-12T21:46:12.021Z,98.00
2019-01-12T21:48:47.049Z,97.90
2019-01-12T21:51:21.980Z,98.00
2019-01-12T21:53:57.421Z,98.20
2019-01-12T21:56:32.763Z,98.40
2019-01-12T21:59:07.903Z,98.70
2019-01-12T22:01:43.671Z,98.80
2019-01-12T22:04:24.581Z,98.90
2019-01-12T22:07:00.682Z,99.00
2019-01-12T22:09:35.660Z,99.10
2019-01-12T22:12:10.522Z,99.00
2019-01-12T22:14:45.380Z,99.00
2019-01-12T22:17:20.852Z,99.00
2019-01-12T22:19:55.971Z,98.90
2019-01-12T22:22:31.900Z,98.90
2019-01-12T22:25:07.859Z,98.80
2019-01-12T22:27:42.713Z,99.00
2019-01-12T22:30:20.939Z,98.90
2019-01-12T22:32:55.805Z,99.00
2019-01-12T22:35:31.106Z,98.90
2019-01-12T22:38:05.950Z,98.80
2019-01-12T22:40:40.915Z,98.70
2019-01-12T22:43:17.707Z,98.80
2019-01-12T22:45:52.602Z,98.90
2019-01-12T22:48:27.932Z,98.90
2019-01-12T22:51:02.874Z,98.90
2019-01-12T22:53:38.140Z,99.00
2019-01-12T22:56:13.183Z,99.00
2019-01-12T22:58:48.248Z,99.10
2019-01-12T23:01:26.736Z,99.00
2019-01-12T23:04:01.810Z,98.90
2019-01-12T23:06:36.727Z,98.70
2019-01-12T23:09:12.631Z,98.50
2019-01-12T23:11:47.840Z,98.50
2019-01-12T23:14:22.705Z,98.60
2019-01-12T23:16:57.817Z,98.50
2019-01-12T23:19:32.765Z,98.50
2019-01-12T23:22:08.208Z,98.30
2019-01-12T23:24:46.418Z,98.40
2019-01-12T23:27:21.542Z,98.50
2019-01-12T23:29:56.398Z,98.30
2019-01-12T23:32:31.605Z,98.40
2019-01-12T23:35:08.523Z,98.40
2019-01-12T23:37:44.351Z,98.30
2019-01-12T23:40:19.187Z,98.10
2019-01-12T23:42:54.132Z,98.50
2019-01-12T23:45:28.978Z,98.10
2019-01-12T23:48:04.276Z,98.00
2019-01-12T23:50:39.447Z,98.20
2019-01-12T23:53:14.388Z,98.00
2019-01-12T23:55:49.544Z,97.90
2019-01-12T23:58:25.771Z,97.80
